sensor_id;sensor_type;location;lat;lon;timestamp;pressure;altitude;pressure_sealevel;temperature;humidity
59289;BME280;45056;47.602;9.886;2022-08-20T00:02:01;93116.81;;;17.57;73.72
59289;BME280;45056;47.602;9.886;2022-08-20T00:04:30;93118.78;;;17.56;73.72
59289;BME280;45056;47.602;9.886;2022-08-20T00:06:58;93118.78;;;17.56;73.77
59289;BME280;45056;47.602;9.886;2022-08-20T00:09:26;93115.28;;;17.56;73.87
59289;BME280;45056;47.602;9.886;2022-08-20T00:11:54;93122.31;;;17.57;73.73
59289;BME280;45056;47.602;9.886;2022-08-20T00:14:23;93119.06;;;17.58;73.61
59289;BME280;45056;47.602;9.886;2022-08-20T00:16:51;93110.34;;;17.60;73.73
59289;BME280;45056;47.602;9.886;2022-08-20T00:19:20;93110.34;;;17.60;73.45
59289;BME280;45056;47.602;9.886;2022-08-20T00:21:49;93107.59;;;17.60;73.54
59289;BME280;45056;47.602;9.886;2022-08-20T00:24:17;93110.34;;;17.60;73.67
59289;BME280;45056;47.602;9.886;2022-08-20T00:26:45;93104.84;;;17.60;73.67
59289;BME280;45056;47.602;9.886;2022-08-20T00:29:13;93103.59;;;17.61;73.54
59289;BME280;45056;47.602;9.886;2022-08-20T00:31:41;93106.34;;;17.61;73.73
59289;BME280;45056;47.602;9.886;2022-08-20T00:34:10;93099.34;;;17.60;73.89
59289;BME280;45056;47.602;9.886;2022-08-20T00:36:39;93091.09;;;17.60;73.91
59289;BME280;45056;47.602;9.886;2022-08-20T00:39:07;93095.06;;;17.59;73.83
59289;BME280;45056;47.602;9.886;2022-08-20T00:41:35;93101.81;;;17.58;74.06
59289;BME280;45056;47.602;9.886;2022-08-20T00:44:08;93100.31;;;17.57;74.19
59289;BME280;45056;47.602;9.886;2022-08-20T00:46:40;93101.81;;;17.58;74.04
59289;BME280;45056;47.602;9.886;2022-08-20T00:49:16;93101.81;;;17.58;74.16
59289;BME280;45056;47.602;9.886;2022-08-20T00:51:52;93106.53;;;17.57;74.31
59289;BME280;45056;47.602;9.886;2022-08-20T00:54:27;93102.56;;;17.58;74.21
59289;BME280;45056;47.602;9.886;2022-08-20T00:57:03;93101.81;;;17.58;74.18
59289;BME280;45056;47.602;9.886;2022-08-20T00:59:36;93097.06;;;17.58;74.30
59289;BME280;45056;47.602;9.886;2022-08-20T01:02:13;93096.31;;;17.58;74.37
59289;BME280;45056;47.602;9.886;2022-08-20T01:04:43;93099.34;;;17.60;74.17
59289;BME280;45056;47.602;9.886;2022-08-20T01:07:15;93093.06;;;17.59;74.12
59289;BME280;45056;47.602;9.886;2022-08-20T01:09:46;93095.53;;;17.57;74.29
59289;BME280;45056;47.602;9.886;2022-08-20T01:12:16;93089.03;;;17.55;74.30
59289;BME280;45056;47.602;9.886;2022-08-20T01:14:46;93091.50;;;17.53;74.31
59289;BME280;45056;47.602;9.886;2022-08-20T01:17:20;93095.50;;;17.52;74.47
59289;BME280;45056;47.602;9.886;2022-08-20T01:19:54;93096.25;;;17.52;74.41
59289;BME280;45056;47.602;9.886;2022-08-20T01:22:34;93089.22;;;17.51;74.50
59289;BME280;45056;47.602;9.886;2022-08-20T01:25:39;93094.25;;;17.53;74.33
59289;BME280;45056;47.602;9.886;2022-08-20T01:28:12;93087.25;;;17.52;74.52
59289;BME280;45056;47.602;9.886;2022-08-20T01:30:43;93088.00;;;17.52;74.54
59289;BME280;45056;47.602;9.886;2022-08-20T01:33:11;93087.25;;;17.52;74.31
59289;BME280;45056;47.602;9.886;2022-08-20T01:35:41;93092.75;;;17.52;74.51
59289;BME280;45056;47.602;9.886;2022-08-20T01:38:10;93083.25;;;17.53;74.59
59289;BME280;45056;47.602;9.886;2022-08-20T01:41:08;93088.75;;;17.53;74.35
59289;BME280;45056;47.602;9.886;2022-08-20T01:43:48;93082.75;;;17.54;74.41
59289;BME280;45056;47.602;9.886;2022-08-20T01:46:24;93091.00;;;17.54;74.48
59289;BME280;45056;47.602;9.886;2022-08-20T01:48:56;93097.00;;;17.53;74.27
59289;BME280;45056;47.602;9.886;2022-08-20T01:51:29;93093.75;;;17.54;74.25
59289;BME280;45056;47.602;9.886;2022-08-20T01:53:57;93096.03;;;17.56;74.27
59289;BME280;45056;47.602;9.886;2022-08-20T01:56:30;93093.28;;;17.56;74.21
59289;BME280;45056;47.602;9.886;2022-08-20T01:59:02;93094.81;;;17.57;74.18
59289;BME280;45056;47.602;9.886;2022-08-20T02:01:35;93092.06;;;17.57;74.14
59289;BME280;45056;47.602;9.886;2022-08-20T02:04:08;93096.03;;;17.56;74.23
59289;BME280;45056;47.602;9.886;2022-08-20T02:06:41;93099.25;;;17.54;74.08
59289;BME280;45056;47.602;9.886;2022-08-20T02:09:11;93101.53;;;17.56;74.24
59289;BME280;45056;47.602;9.886;2022-08-20T02:11:41;93100.31;;;17.57;74.22
59289;BME280;45056;47.602;9.886;2022-08-20T02:14:10;93100.31;;;17.57;74.26
59289;BME280;45056;47.602;9.886;2022-08-20T02:16:44;93094.03;;;17.56;74.02
59289;BME280;45056;47.602;9.886;2022-08-20T02:19:17;93094.81;;;17.57;74.02
59289;BME280;45056;47.602;9.886;2022-08-20T02:21:51;93102.28;;;17.56;74.02
59289;BME280;45056;47.602;9.886;2022-08-20T02:24:22;93106.28;;;17.55;73.96
59289;BME280;45056;47.602;9.886;2022-08-20T02:26:51;93114.53;;;17.55;73.97
59289;BME280;45056;47.602;9.886;2022-08-20T02:29:21;93104.28;;;17.56;73.92
59289;BME280;45056;47.602;9.886;2022-08-20T02:31:49;93102.78;;;17.55;73.78
59289;BME280;45056;47.602;9.886;2022-08-20T02:34:17;93101.28;;;17.54;73.90
59289;BME280;45056;47.602;9.886;2022-08-20T02:36:45;93098.03;;;17.55;73.68
59289;BME280;45056;47.602;9.886;2022-08-20T02:39:14;93104.28;;;17.56;73.80
59289;BME280;45056;47.602;9.886;2022-08-20T02:41:42;93096.78;;;17.56;73.87
59289;BME280;45056;47.602;9.886;2022-08-20T02:44:12;93105.03;;;17.56;73.72
59289;BME280;45056;47.602;9.886;2022-08-20T02:46:40;93095.28;;;17.55;73.92
59289;BME280;45056;47.602;9.886;2022-08-20T02:49:08;93108.28;;;17.55;74.01
59289;BME280;45056;47.602;9.886;2022-08-20T02:51:36;93102.78;;;17.55;73.86
59289;BME280;45056;47.602;9.886;2022-08-20T02:54:04;93104.03;;;17.54;74.15
59289;BME280;45056;47.602;9.886;2022-08-20T02:56:33;93094.72;;;17.51;74.08
59289;BME280;45056;47.602;9.886;2022-08-20T02:59:01;93096.75;;;17.51;74.11
59289;BME280;45056;47.602;9.886;2022-08-20T03:01:30;93099.22;;;17.49;74.09
59289;BME280;45056;47.602;9.886;2022-08-20T03:03:59;93103.94;;;17.48;74.23
59289;BME280;45056;47.602;9.886;2022-08-20T03:06:29;93094.66;;;17.45;74.25
59289;BME280;45056;47.602;9.886;2022-08-20T03:08:57;93095.16;;;17.44;74.55
59289;BME280;45056;47.602;9.886;2022-08-20T03:11:26;93104.16;;;17.44;74.56
59289;BME280;45056;47.602;9.886;2022-08-20T03:13:54;93095.63;;;17.42;74.57
59289;BME280;45056;47.602;9.886;2022-08-20T03:16:22;93100.38;;;17.42;74.45
59289;BME280;45056;47.602;9.886;2022-08-20T03:18:51;93105.88;;;17.42;74.55
59289;BME280;45056;47.602;9.886;2022-08-20T03:21:19;93105.13;;;17.41;74.73
59289;BME280;45056;47.602;9.886;2022-08-20T03:23:47;93104.38;;;17.41;74.43
59289;BME280;45056;47.602;9.886;2022-08-20T03:26:15;93107.13;;;17.41;74.60
59289;BME280;45056;47.602;9.886;2022-08-20T03:28:43;93106.34;;;17.40;74.68
59289;BME280;45056;47.602;9.886;2022-08-20T03:31:11;93101.81;;;17.37;74.55
59289;BME280;45056;47.602;9.886;2022-08-20T03:33:41;93102.59;;;17.38;74.75
59289;BME280;45056;47.602;9.886;2022-08-20T03:36:10;93100.59;;;17.38;74.52
59289;BME280;45056;47.602;9.886;2022-08-20T03:38:39;93097.09;;;17.38;74.55
59289;BME280;45056;47.602;9.886;2022-08-20T03:41:07;93098.78;;;17.35;74.75
59289;BME280;45056;47.602;9.886;2022-08-20T03:43:35;93093.78;;;17.34;74.86
59289;BME280;45056;47.602;9.886;2022-08-20T03:46:04;93096.53;;;17.34;74.74
59289;BME280;45056;47.602;9.886;2022-08-20T03:48:33;93095.03;;;17.33;74.68
59289;BME280;45056;47.602;9.886;2022-08-20T03:51:01;93106.31;;;17.35;74.88
59289;BME280;45056;47.602;9.886;2022-08-20T03:53:31;93109.31;;;17.37;74.78
59289;BME280;45056;47.602;9.886;2022-08-20T03:56:03;93104.56;;;17.37;74.72
59289;BME280;45056;47.602;9.886;2022-08-20T03:58:34;93108.38;;;17.40;74.79
59289;BME280;45056;47.602;9.886;2022-08-20T04:01:04;93113.09;;;17.39;74.51
59289;BME280;45056;47.602;9.886;2022-08-20T04:03:34;93116.13;;;17.41;74.34
59289;BME280;45056;47.602;9.886;2022-08-20T04:06:03;93118.41;;;17.43;74.44
59289;BME280;45056;47.602;9.886;2022-08-20T04:08:32;93109.66;;;17.44;74.38
59289;BME280;45056;47.602;9.886;2022-08-20T04:11:00;93109.38;;;17.42;74.49
59289;BME280;45056;47.602;9.886;2022-08-20T04:13:29;93111.38;;;17.42;74.57
59289;BME280;45056;47.602;9.886;2022-08-20T04:16:00;93112.13;;;17.42;74.38
59289;BME280;45056;47.602;9.886;2022-08-20T04:18:29;93112.91;;;17.43;74.46
59289;BME280;45056;47.602;9.886;2022-08-20T04:20:57;93117.91;;;17.44;74.31
59289;BME280;45056;47.602;9.886;2022-08-20T04:23:25;93117.16;;;17.44;74.40
59289;BME280;45056;47.602;9.886;2022-08-20T04:25:55;93120.66;;;17.44;74.39
59289;BME280;45056;47.602;9.886;2022-08-20T04:28:24;93119.41;;;17.45;74.23
59289;BME280;45056;47.602;9.886;2022-08-20T04:30:55;93120.19;;;17.46;74.17
59289;BME280;45056;47.602;9.886;2022-08-20T04:33:26;93114.69;;;17.46;74.21
59289;BME280;45056;47.602;9.886;2022-08-20T04:35:57;93117.44;;;17.46;74.17
59289;BME280;45056;47.602;9.886;2022-08-20T04:38:29;93120.91;;;17.47;74.09
59289;BME280;45056;47.602;9.886;2022-08-20T04:40:58;93113.44;;;17.47;74.21
59289;BME280;45056;47.602;9.886;2022-08-20T04:43:28;93122.47;;;17.48;74.09
59289;BME280;45056;47.602;9.886;2022-08-20T04:46:00;93123.66;;;17.47;74.25
59289;BME280;45056;47.602;9.886;2022-08-20T04:48:31;93127.47;;;17.49;74.30
59289;BME280;45056;47.602;9.886;2022-08-20T04:50:59;93130.97;;;17.50;74.18
59289;BME280;45056;47.602;9.886;2022-08-20T04:53:28;93123.47;;;17.50;74.09
59289;BME280;45056;47.602;9.886;2022-08-20T04:56:00;93124.25;;;17.51;74.17
59289;BME280;45056;47.602;9.886;2022-08-20T04:58:32;93127.28;;;17.53;74.25
59289;BME280;45056;47.602;9.886;2022-08-20T05:01:05;93132.78;;;17.53;74.15
59289;BME280;45056;47.602;9.886;2022-08-20T05:03:36;93132.78;;;17.53;74.06
59289;BME280;45056;47.602;9.886;2022-08-20T05:06:07;93136.25;;;17.53;73.91
59289;BME280;45056;47.602;9.886;2022-08-20T05:08:38;93143.00;;;17.52;73.99
59289;BME280;45056;47.602;9.886;2022-08-20T05:11:09;93143.78;;;17.53;73.76
59289;BME280;45056;47.602;9.886;2022-08-20T05:13:40;93137.50;;;17.52;73.95
59289;BME280;45056;47.602;9.886;2022-08-20T05:16:08;93145.00;;;17.52;74.01
59289;BME280;45056;47.602;9.886;2022-08-20T05:18:36;93146.53;;;17.53;73.89
59289;BME280;45056;47.602;9.886;2022-08-20T05:21:05;93155.50;;;17.53;73.85
59289;BME280;45056;47.602;9.886;2022-08-20T05:23:35;93146.53;;;17.53;73.65
59289;BME280;45056;47.602;9.886;2022-08-20T05:26:10;93143.78;;;17.53;73.67
59289;BME280;45056;47.602;9.886;2022-08-20T05:28:39;93144.50;;;17.53;73.60
59289;BME280;45056;47.602;9.886;2022-08-20T05:31:08;93153.25;;;17.52;73.52
59289;BME280;45056;47.602;9.886;2022-08-20T05:33:37;93156.00;;;17.52;73.64
59289;BME280;45056;47.602;9.886;2022-08-20T05:36:06;93146.25;;;17.51;73.68
59289;BME280;45056;47.602;9.886;2022-08-20T05:38:35;93152.50;;;17.51;73.74
59289;BME280;45056;47.602;9.886;2022-08-20T05:41:04;93148.50;;;17.52;73.75
59289;BME280;45056;47.602;9.886;2022-08-20T05:43:34;93154.00;;;17.52;73.67
59289;BME280;45056;47.602;9.886;2022-08-20T05:46:02;93155.50;;;17.53;73.55
59289;BME280;45056;47.602;9.886;2022-08-20T05:48:30;93152.75;;;17.53;73.64
59289;BME280;45056;47.602;9.886;2022-08-20T05:51:01;93153.81;;;17.56;73.46
59289;BME280;45056;47.602;9.886;2022-08-20T05:53:29;93156.06;;;17.57;73.50
59289;BME280;45056;47.602;9.886;2022-08-20T05:55:57;93154.34;;;17.60;73.42
59289;BME280;45056;47.602;9.886;2022-08-20T05:58:27;93151.59;;;17.60;73.48
59289;BME280;45056;47.602;9.886;2022-08-20T06:00:59;93149.59;;;17.60;73.18
59289;BME280;45056;47.602;9.886;2022-08-20T06:03:28;93147.88;;;17.63;73.16
59289;BME280;45056;47.602;9.886;2022-08-20T06:06:14;93150.91;;;17.65;73.27
59289;BME280;45056;47.602;9.886;2022-08-20T06:08:42;93142.47;;;17.69;73.17
59289;BME280;45056;47.602;9.886;2022-08-20T06:11:10;93145.25;;;17.74;73.07
59289;BME280;45056;47.602;9.886;2022-08-20T06:13:38;93135.28;;;17.77;73.07
59289;BME280;45056;47.602;9.886;2022-08-20T06:16:08;93134.31;;;17.80;72.69
59289;BME280;45056;47.602;9.886;2022-08-20T06:18:36;93143.59;;;17.83;72.62
59289;BME280;45056;47.602;9.886;2022-08-20T06:21:04;93148.63;;;17.84;72.67
59289;BME280;45056;47.602;9.886;2022-08-20T06:23:32;93157.63;;;17.85;72.51
59289;BME280;45056;47.602;9.886;2022-08-20T06:26:00;93152.13;;;17.85;72.47
59289;BME280;45056;47.602;9.886;2022-08-20T06:28:28;93154.88;;;17.85;72.46
59289;BME280;45056;47.602;9.886;2022-08-20T06:30:57;93160.66;;;17.87;72.24
59289;BME280;45056;47.602;9.886;2022-08-20T06:33:27;93158.66;;;17.87;72.26
59289;BME280;45056;47.602;9.886;2022-08-20T06:35:55;93158.19;;;17.89;72.18
59289;BME280;45056;47.602;9.886;2022-08-20T06:38:23;93161.69;;;17.89;72.17
59289;BME280;45056;47.602;9.886;2022-08-20T06:40:51;93163.19;;;17.91;72.20
59289;BME280;45056;47.602;9.886;2022-08-20T06:43:19;93155.69;;;17.91;72.22
59289;BME280;45056;47.602;9.886;2022-08-20T06:45:47;93166.22;;;17.93;72.09
59289;BME280;45056;47.602;9.886;2022-08-20T06:48:15;93160.22;;;17.94;72.08
59289;BME280;45056;47.602;9.886;2022-08-20T06:50:46;93175.78;;;17.97;72.14
59289;BME280;45056;47.602;9.886;2022-08-20T06:53:16;93173.28;;;17.99;72.03
59289;BME280;45056;47.602;9.886;2022-08-20T06:55:49;93172.84;;;18.01;72.14
59289;BME280;45056;47.602;9.886;2022-08-20T06:58:19;93170.09;;;18.01;71.78
59289;BME280;45056;47.602;9.886;2022-08-20T07:00:48;93179.09;;;18.01;72.09
59289;BME280;45056;47.602;9.886;2022-08-20T07:03:16;93183.56;;;17.99;71.86
59289;BME280;45056;47.602;9.886;2022-08-20T07:05:45;93183.28;;;17.97;71.87
59289;BME280;45056;47.602;9.886;2022-08-20T07:08:15;93187.56;;;17.98;72.14
59289;BME280;45056;47.602;9.886;2022-08-20T07:10:48;93180.81;;;17.99;72.05
59289;BME280;45056;47.602;9.886;2022-08-20T07:13:17;93185.06;;;18.00;72.01
59289;BME280;45056;47.602;9.886;2022-08-20T07:15:45;93188.88;;;18.02;72.01
59289;BME280;45056;47.602;9.886;2022-08-20T07:18:13;93188.88;;;18.02;72.22
59289;BME280;45056;47.602;9.886;2022-08-20T07:20:41;93190.88;;;18.02;72.16
59289;BME280;45056;47.602;9.886;2022-08-20T07:23:11;93195.16;;;18.03;72.32
59289;BME280;45056;47.602;9.886;2022-08-20T07:25:41;93195.88;;;18.03;72.25
59289;BME280;45056;47.602;9.886;2022-08-20T07:28:13;93201.41;;;18.03;72.31
59289;BME280;45056;47.602;9.886;2022-08-20T07:30:44;93199.41;;;18.04;72.33
59289;BME280;45056;47.602;9.886;2022-08-20T07:33:30;93191.16;;;18.04;72.25
59289;BME280;45056;47.602;9.886;2022-08-20T07:36:01;93199.69;;;18.06;72.27
59289;BME280;45056;47.602;9.886;2022-08-20T07:38:33;93195.47;;;18.11;72.11
59289;BME280;45056;47.602;9.886;2022-08-20T07:41:03;93200.28;;;18.16;72.40
59289;BME280;45056;47.602;9.886;2022-08-20T07:43:33;93203.09;;;18.22;72.35
59289;BME280;45056;47.602;9.886;2022-08-20T07:46:02;93207.91;;;18.27;71.91
59289;BME280;45056;47.602;9.886;2022-08-20T07:48:34;93214.72;;;18.31;71.68
59289;BME280;45056;47.602;9.886;2022-08-20T07:51:08;93210.22;;;18.34;71.45
59289;BME280;45056;47.602;9.886;2022-08-20T07:53:39;93202.72;;;18.35;71.42
59289;BME280;45056;47.602;9.886;2022-08-20T07:56:12;93202.72;;;18.35;71.58
59289;BME280;45056;47.602;9.886;2022-08-20T07:58:45;93212.75;;;18.38;71.65
59289;BME280;45056;47.602;9.886;2022-08-20T08:01:16;93211.03;;;18.40;71.36
59289;BME280;45056;47.602;9.886;2022-08-20T08:03:45;93219.38;;;18.46;71.19
59289;BME280;45056;47.602;9.886;2022-08-20T08:06:14;93217.88;;;18.51;71.15
59289;BME280;45056;47.602;9.886;2022-08-20T08:08:43;93220.72;;;18.56;71.00
59289;BME280;45056;47.602;9.886;2022-08-20T08:11:11;93218.50;;;18.60;70.76
59289;BME280;45056;47.602;9.886;2022-08-20T08:13:40;93218.28;;;18.64;70.63
59289;BME280;45056;47.602;9.886;2022-08-20T08:16:09;93210.53;;;18.68;70.50
59289;BME280;45056;47.602;9.886;2022-08-20T08:18:41;93207.06;;;18.73;70.44
59289;BME280;45056;47.602;9.886;2022-08-20T08:21:15;93205.84;;;18.74;69.97
59289;BME280;45056;47.602;9.886;2022-08-20T08:23:46;93212.13;;;18.75;69.94
59289;BME280;45056;47.602;9.886;2022-08-20T08:26:15;93209.63;;;18.77;70.18
59289;BME280;45056;47.602;9.886;2022-08-20T08:28:43;93203.41;;;18.82;70.17
59289;BME280;45056;47.602;9.886;2022-08-20T08:31:11;93206.47;;;18.90;70.09
59289;BME280;45056;47.602;9.886;2022-08-20T08:33:40;93201.75;;;18.96;69.39
59289;BME280;45056;47.602;9.886;2022-08-20T08:36:11;93207.88;;;19.06;69.34
59289;BME280;45056;47.602;9.886;2022-08-20T08:38:43;93209.19;;;19.16;69.05
59289;BME280;45056;47.602;9.886;2022-08-20T08:41:18;93207.47;;;19.25;68.62
59289;BME280;45056;47.602;9.886;2022-08-20T08:43:52;93215.03;;;19.30;68.41
59289;BME280;45056;47.602;9.886;2022-08-20T08:46:26;93214.09;;;19.39;68.39
59289;BME280;45056;47.602;9.886;2022-08-20T08:48:59;93215.13;;;19.47;67.79
59289;BME280;45056;47.602;9.886;2022-08-20T08:51:34;93214.16;;;19.50;67.40
59289;BME280;45056;47.602;9.886;2022-08-20T08:54:14;93219.69;;;19.56;67.21
59289;BME280;45056;47.602;9.886;2022-08-20T08:56:44;93227.75;;;19.59;66.67
59289;BME280;45056;47.602;9.886;2022-08-20T08:59:12;93213.44;;;19.61;66.64
59289;BME280;45056;47.602;9.886;2022-08-20T09:01:43;93212.97;;;19.63;66.51
59289;BME280;45056;47.602;9.886;2022-08-20T09:04:16;93217.97;;;19.64;66.61
59289;BME280;45056;47.602;9.886;2022-08-20T09:06:48;93214.72;;;19.66;66.47
59289;BME280;45056;47.602;9.886;2022-08-20T09:09:24;93216.25;;;19.67;66.15
59289;BME280;45056;47.602;9.886;2022-08-20T09:12:02;93211.97;;;19.66;66.20
59289;BME280;45056;47.602;9.886;2022-08-20T09:14:33;93215.50;;;19.66;66.23
59289;BME280;45056;47.602;9.886;2022-08-20T09:17:02;93210.47;;;19.65;66.11
59289;BME280;45056;47.602;9.886;2022-08-20T09:19:31;93210.72;;;19.67;65.91
59289;BME280;45056;47.602;9.886;2022-08-20T09:22:06;93209.00;;;19.69;65.96
59289;BME280;45056;47.602;9.886;2022-08-20T09:24:38;93212.25;;;19.73;65.67
59289;BME280;45056;47.602;9.886;2022-08-20T09:27:07;93204.75;;;19.80;65.19
59289;BME280;45056;47.602;9.886;2022-08-20T09:29:35;93200.00;;;19.86;65.38
59289;BME280;45056;47.602;9.886;2022-08-20T09:32:05;93207.09;;;19.93;65.64
59289;BME280;45056;47.602;9.886;2022-08-20T09:34:35;93198.84;;;19.98;65.48
59289;BME280;45056;47.602;9.886;2022-08-20T09:37:04;93193.56;;;20.06;65.27
59289;BME280;45056;47.602;9.886;2022-08-20T09:39:32;93185.56;;;20.14;64.96
59289;BME280;45056;47.602;9.886;2022-08-20T09:42:12;93195.88;;;20.19;64.42
59289;BME280;45056;47.602;9.886;2022-08-20T09:44:42;93183.09;;;20.22;64.35
59289;BME280;45056;47.602;9.886;2022-08-20T09:47:11;93182.81;;;20.25;63.98
59289;BME280;45056;47.602;9.886;2022-08-20T09:49:40;93177.06;;;20.29;63.41
59289;BME280;45056;47.602;9.886;2022-08-20T09:52:19;93180.34;;;20.39;63.55
59289;BME280;45056;47.602;9.886;2022-08-20T09:54:50;93179.13;;;20.45;63.53
59289;BME280;45056;47.602;9.886;2022-08-20T09:57:22;93179.63;;;20.50;62.88
59289;BME280;45056;47.602;9.886;2022-08-20T09:59:55;93187.41;;;20.51;62.99
59289;BME280;45056;47.602;9.886;2022-08-20T10:02:26;93190.91;;;20.46;63.14
59289;BME280;45056;47.602;9.886;2022-08-20T10:04:54;93188.91;;;20.41;63.41
59289;BME280;45056;47.602;9.886;2022-08-20T10:07:23;93183.88;;;20.33;63.47
59289;BME280;45056;47.602;9.886;2022-08-20T10:09:51;93181.34;;;20.30;63.95
59289;BME280;45056;47.602;9.886;2022-08-20T10:12:19;93188.59;;;20.27;64.15
59289;BME280;45056;47.602;9.886;2022-08-20T10:14:48;93175.06;;;20.24;64.06
59289;BME280;45056;47.602;9.886;2022-08-20T10:17:16;93185.34;;;20.23;64.08
59289;BME280;45056;47.602;9.886;2022-08-20T10:19:44;93177.03;;;20.23;64.27
59289;BME280;45056;47.602;9.886;2022-08-20T10:22:13;93184.84;;;20.25;64.16
59289;BME280;45056;47.602;9.886;2022-08-20T10:24:41;93181.56;;;20.26;64.53
59289;BME280;45056;47.602;9.886;2022-08-20T10:27:09;93187.88;;;20.27;64.65
59289;BME280;45056;47.602;9.886;2022-08-20T10:29:37;93190.88;;;20.23;64.96
59289;BME280;45056;47.602;9.886;2022-08-20T10:32:13;93187.84;;;20.21;66.17
59289;BME280;45056;47.602;9.886;2022-08-20T10:34:44;93188.84;;;20.18;67.01
59289;BME280;45056;47.602;9.886;2022-08-20T10:37:15;93191.09;;;20.14;66.98
59289;BME280;45056;47.602;9.886;2022-08-20T10:39:45;93189.31;;;20.05;67.13
59289;BME280;45056;47.602;9.886;2022-08-20T10:42:14;93182.00;;;19.96;67.21
59289;BME280;45056;47.602;9.886;2022-08-20T10:44:42;93176.47;;;19.91;67.55
59289;BME280;45056;47.602;9.886;2022-08-20T10:47:18;93170.41;;;19.86;67.93
59289;BME280;45056;47.602;9.886;2022-08-20T10:49:51;93173.91;;;19.87;67.95
59289;BME280;45056;47.602;9.886;2022-08-20T10:52:21;93168.94;;;19.91;68.46
59289;BME280;45056;47.602;9.886;2022-08-20T10:54:51;93165.72;;;19.98;68.67
59289;BME280;45056;47.602;9.886;2022-08-20T10:57:23;93167.97;;;20.11;69.09
59289;BME280;45056;47.602;9.886;2022-08-20T10:59:56;93176.31;;;20.23;69.21
59289;BME280;45056;47.602;9.886;2022-08-20T11:02:27;93169.28;;;20.33;68.21
59289;BME280;45056;47.602;9.886;2022-08-20T11:04:55;93169.31;;;20.39;67.69
59289;BME280;45056;47.602;9.886;2022-08-20T11:07:29;93169.03;;;20.42;66.93
59289;BME280;45056;47.602;9.886;2022-08-20T11:09:59;93168.06;;;20.51;66.84
59289;BME280;45056;47.602;9.886;2022-08-20T11:12:28;93167.56;;;20.64;65.58
59289;BME280;45056;47.602;9.886;2022-08-20T11:14:56;93177.38;;;20.71;65.15
59289;BME280;45056;47.602;9.886;2022-08-20T11:17:27;93174.09;;;20.78;64.59
59289;BME280;45056;47.602;9.886;2022-08-20T11:19:58;93171.63;;;20.86;64.39
59289;BME280;45056;47.602;9.886;2022-08-20T11:22:27;93160.03;;;20.93;63.63
59289;BME280;45056;47.602;9.886;2022-08-20T11:24:55;93157.25;;;21.04;63.20
59289;BME280;45056;47.602;9.886;2022-08-20T11:27:25;93167.06;;;21.17;62.97
59289;BME280;45056;47.602;9.886;2022-08-20T11:29:55;93166.78;;;21.32;62.70
59289;BME280;45056;47.602;9.886;2022-08-20T11:32:24;93171.25;;;21.46;61.88
59289;BME280;45056;47.602;9.886;2022-08-20T11:34:54;93162.41;;;21.59;61.97
59289;BME280;45056;47.602;9.886;2022-08-20T11:37:23;93170.50;;;21.69;61.30
59289;BME280;45056;47.602;9.886;2022-08-20T11:39:53;93177.78;;;21.66;61.47
59289;BME280;45056;47.602;9.886;2022-08-20T11:42:21;93175.28;;;21.57;61.62
59289;BME280;45056;47.602;9.886;2022-08-20T11:44:49;93182.09;;;21.50;61.24
59289;BME280;45056;47.602;9.886;2022-08-20T11:47:22;93175.28;;;21.45;61.30
59289;BME280;45056;47.602;9.886;2022-08-20T11:49:58;93178.34;;;21.42;61.58
59289;BME280;45056;47.602;9.886;2022-08-20T11:52:29;93182.38;;;21.41;61.51
59289;BME280;45056;47.602;9.886;2022-08-20T11:54:58;93179.59;;;21.35;61.24
59289;BME280;45056;47.602;9.886;2022-08-20T11:57:28;93176.59;;;21.27;61.51
59289;BME280;45056;47.602;9.886;2022-08-20T12:00:00;93184.66;;;21.19;61.73
59289;BME280;45056;47.602;9.886;2022-08-20T12:02:34;93185.69;;;21.11;61.75
59289;BME280;45056;47.602;9.886;2022-08-20T12:05:04;93190.72;;;20.95;62.34
59289;BME280;45056;47.602;9.886;2022-08-20T12:07:33;93190.97;;;20.80;63.02
59289;BME280;45056;47.602;9.886;2022-08-20T12:10:01;93193.22;;;20.65;64.19
59289;BME280;45056;47.602;9.886;2022-08-20T12:12:32;93196.94;;;20.50;64.74
59289;BME280;45056;47.602;9.886;2022-08-20T12:15:00;93200.94;;;20.38;65.48
59289;BME280;45056;47.602;9.886;2022-08-20T12:17:29;93206.44;;;20.26;66.21
59289;BME280;45056;47.602;9.886;2022-08-20T12:20:01;93202.66;;;20.18;66.39
59289;BME280;45056;47.602;9.886;2022-08-20T12:22:34;93200.88;;;20.09;66.43
59289;BME280;45056;47.602;9.886;2022-08-20T12:25:03;93207.38;;;20.00;66.38
59289;BME280;45056;47.602;9.886;2022-08-20T12:27:34;93198.31;;;19.94;66.42
59289;BME280;45056;47.602;9.886;2022-08-20T12:30:07;93203.53;;;19.86;66.25
59289;BME280;45056;47.602;9.886;2022-08-20T12:32:38;93198.75;;;19.81;65.92
59289;BME280;45056;47.602;9.886;2022-08-20T12:35:10;93194.19;;;19.78;66.23
59289;BME280;45056;47.602;9.886;2022-08-20T12:37:41;93187.69;;;19.75;66.28
59289;BME280;45056;47.602;9.886;2022-08-20T12:40:13;93186.69;;;19.79;66.78
59289;BME280;45056;47.602;9.886;2022-08-20T12:42:43;93187.47;;;19.85;66.70
59289;BME280;45056;47.602;9.886;2022-08-20T12:45:11;93183.97;;;19.90;66.76
59289;BME280;45056;47.602;9.886;2022-08-20T12:47:42;93181.50;;;19.98;66.52
59289;BME280;45056;47.602;9.886;2022-08-20T12:50:16;93185.81;;;20.04;66.74
59289;BME280;45056;47.602;9.886;2022-08-20T12:52:46;93176.78;;;20.10;66.75
59289;BME280;45056;47.602;9.886;2022-08-20T12:55:17;93184.56;;;20.17;66.73
59289;BME280;45056;47.602;9.886;2022-08-20T12:57:48;93179.59;;;20.27;67.09
59289;BME280;45056;47.602;9.886;2022-08-20T13:00:21;93177.34;;;20.37;66.60
59289;BME280;45056;47.602;9.886;2022-08-20T13:02:53;93173.31;;;20.43;66.39
59289;BME280;45056;47.602;9.886;2022-08-20T13:05:24;93181.88;;;20.51;66.19
59289;BME280;45056;47.602;9.886;2022-08-20T13:07:52;93187.16;;;20.55;66.10
59289;BME280;45056;47.602;9.886;2022-08-20T13:10:24;93183.41;;;20.58;65.89
59289;BME280;45056;47.602;9.886;2022-08-20T13:12:54;93187.66;;;20.59;65.58
59289;BME280;45056;47.602;9.886;2022-08-20T13:15:23;93187.19;;;20.60;65.28
59289;BME280;45056;47.602;9.886;2022-08-20T13:17:52;93186.41;;;20.60;65.26